createdAt,value
2023-04-26T00:00:11.347Z,5.9670
2023-04-26T00:01:12.042Z,5.9789
2023-04-26T00:02:12.797Z,6.0022
2023-04-26T00:03:13.628Z,6.0421
2023-04-26T00:04:14.817Z,6.0447
2023-04-26T00:05:15.742Z,6.1050
2023-04-26T00:06:16.455Z,6.1476
2023-04-26T00:07:17.138Z,6.1316
2023-04-26T00:08:17.776Z,6.1173
2023-04-26T00:09:18.505Z,6.1163
2023-04-26T00:10:19.171Z,6.1113
2023-04-26T00:11:19.835Z,6.1167
2023-04-26T00:12:20.542Z,6.1720
2023-04-26T00:13:21.260Z,6.2038
2023-04-26T00:14:21.900Z,6.2305
2023-04-26T00:15:22.584Z,6.2025
2023-04-26T00:16:23.255Z,6.2009
2023-04-26T00:17:23.896Z,6.2188
2023-04-26T00:18:24.516Z,6.2252
2023-04-26T00:19:25.159Z,6.1425
2023-04-26T00:20:25.787Z,6.0884
2023-04-26T00:21:26.439Z,6.1549
2023-04-26T00:22:27.052Z,6.0932
2023-04-26T00:23:27.730Z,6.1383
2023-04-26T00:24:28.468Z,6.1860
2023-04-26T00:25:29.130Z,6.1557
2023-04-26T00:26:29.773Z,6.1611
2023-04-26T00:27:30.430Z,6.1183
2023-04-26T00:28:31.045Z,6.1461
2023-04-26T00:29:31.748Z,6.1400
2023-04-26T00:30:32.445Z,6.1169
2023-04-26T00:31:33.107Z,6.1090
2023-04-26T00:32:33.751Z,6.1234
2023-04-26T00:33:34.475Z,6.1376
2023-04-26T00:34:35.167Z,6.1112
2023-04-26T00:35:35.834Z,6.1146
2023-04-26T00:36:36.608Z,6.0733
2023-04-26T00:37:37.336Z,6.1512
2023-04-26T00:38:37.960Z,6.1156
2023-04-26T00:39:38.700Z,6.0419
2023-04-26T00:40:39.374Z,6.0927
2023-04-26T00:41:40.084Z,6.1402
2023-04-26T00:42:40.741Z,6.1941
2023-04-26T00:43:41.426Z,6.1210
2023-04-26T00:44:42.110Z,6.0878
2023-04-26T00:45:42.839Z,6.1152
2023-04-26T00:46:43.471Z,6.1126
2023-04-26T00:47:44.162Z,6.1256
2023-04-26T00:48:44.790Z,6.1095
2023-04-26T00:49:45.483Z,6.0897
2023-04-26T00:50:46.159Z,6.1119
2023-04-26T00:51:46.829Z,6.2139
2023-04-26T00:52:47.558Z,6.2505
2023-04-26T00:53:48.210Z,6.2462
2023-04-26T00:54:48.939Z,6.2974
2023-04-26T00:55:49.661Z,6.3050
2023-04-26T00:56:50.348Z,6.3133
2023-04-26T00:57:51.000Z,6.2803
2023-04-26T00:58:51.870Z,6.3293
2023-04-26T00:59:52.828Z,6.2828
2023-04-26T01:00:53.811Z,6.2287
2023-04-26T01:01:54.530Z,6.2258
2023-04-26T01:02:55.314Z,6.1926
2023-04-26T01:03:56.131Z,6.1835
2023-04-26T01:04:57.037Z,6.2155
2023-04-26T01:05:57.688Z,6.1853
2023-04-26T01:06:58.390Z,6.1830
2023-04-26T01:07:59.102Z,6.1561
2023-04-26T01:08:59.773Z,6.1489
2023-04-26T01:10:00.464Z,6.1369
2023-04-26T01:11:01.157Z,6.1171
2023-04-26T01:12:01.867Z,6.1329
2023-04-26T01:13:02.582Z,6.1419
2023-04-26T01:14:03.257Z,6.1656
2023-04-26T01:15:03.978Z,6.1324
2023-04-26T01:16:04.694Z,6.1140
2023-04-26T01:17:05.340Z,6.1533
2023-04-26T01:18:06.093Z,6.1653
2023-04-26T01:19:06.735Z,6.1324
2023-04-26T01:20:07.422Z,6.1427
2023-04-26T01:21:08.126Z,6.1349
2023-04-26T01:22:08.873Z,6.1096
2023-04-26T01:23:09.535Z,6.1051
2023-04-26T01:24:10.209Z,6.0749
2023-04-26T01:25:10.898Z,6.0848
2023-04-26T01:26:11.595Z,6.0365
2023-04-26T01:27:12.230Z,5.9780
2023-04-26T01:28:12.878Z,5.9688
2023-04-26T01:29:13.598Z,5.9755
2023-04-26T01:30:14.361Z,5.9016
2023-04-26T01:31:15.030Z,5.8211
2023-04-26T01:32:15.734Z,5.8863
2023-04-26T01:33:16.472Z,5.9056
2023-04-26T01:34:17.192Z,5.8513
2023-04-26T01:35:17.916Z,5.7893
2023-04-26T01:36:18.565Z,5.7651
2023-04-26T01:37:19.231Z,5.7665
2023-04-26T01:38:19.963Z,5.7850
2023-04-26T01:39:20.603Z,5.7668
2023-04-26T01:40:21.358Z,5.7617
2023-04-26T01:41:21.984Z,5.7325
2023-04-26T01:42:22.689Z,5.6673
2023-04-26T01:43:23.388Z,5.6238
2023-04-26T01:44:24.053Z,5.6741
2023-04-26T01:45:24.739Z,5.6519
2023-04-26T01:46:25.442Z,5.6620
2023-04-26T01:47:26.121Z,5.6062
2023-04-26T01:48:26.784Z,5.5499
2023-04-26T01:49:27.455Z,5.6384
2023-04-26T01:50:28.122Z,5.6339
2023-04-26T01:51:28.962Z,5.6605
2023-04-26T01:52:29.784Z,5.5974
2023-04-26T01:53:30.531Z,5.5755
2023-04-26T01:54:31.189Z,5.6371
2023-04-26T01:55:31.855Z,5.6434
2023-04-26T01:56:32.666Z,5.6919
2023-04-26T01:57:33.407Z,5.6963
2023-04-26T01:58:34.100Z,5.7024
2023-04-26T01:59:34.737Z,5.7307
2023-04-26T02:00:35.454Z,5.6612
2023-04-26T02:01:36.118Z,5.5660
2023-04-26T02:02:36.945Z,5.5378
2023-04-26T02:03:37.844Z,5.5386
2023-04-26T02:04:38.565Z,5.4682
2023-04-26T02:05:39.194Z,5.4515
2023-04-26T02:06:39.896Z,5.4790
2023-04-26T02:07:40.609Z,5.4170
2023-04-26T02:08:41.247Z,5.3833
2023-04-26T02:09:41.943Z,5.2949
2023-04-26T02:10:42.659Z,5.2929
2023-04-26T02:11:43.358Z,5.2410
2023-04-26T02:12:44.066Z,5.2879
2023-04-26T02:13:44.711Z,5.3176
2023-04-26T02:14:45.361Z,5.3773
2023-04-26T02:15:46.127Z,5.3873
2023-04-26T02:16:46.881Z,5.3975
2023-04-26T02:17:47.547Z,5.4055
2023-04-26T02:18:48.289Z,5.3823
2023-04-26T02:19:48.939Z,5.4290
2023-04-26T02:20:49.650Z,5.4858
2023-04-26T02:21:50.337Z,5.5588
2023-04-26T02:22:50.998Z,5.5861
2023-04-26T02:23:51.629Z,5.5868
2023-04-26T02:24:52.319Z,5.6575
2023-04-26T02:25:52.987Z,5.6956
2023-04-26T02:26:53.682Z,5.6472
2023-04-26T02:27:54.357Z,5.5952
2023-04-26T02:28:55.159Z,5.5963
2023-04-26T02:29:55.846Z,5.5539
2023-04-26T02:30:56.556Z,5.5539
2023-04-26T02:31:57.377Z,5.5668
2023-04-26T02:32:58.092Z,5.5692
2023-04-26T02:33:58.778Z,5.5145
2023-04-26T02:34:59.527Z,5.4747
2023-04-26T02:36:00.186Z,5.4727
2023-04-26T02:37:00.912Z,5.4247
2023-04-26T02:38:01.632Z,5.4066
2023-04-26T02:39:02.325Z,5.4508
2023-04-26T02:40:03.054Z,5.4488
2023-04-26T02:41:03.940Z,5.4354
2023-04-26T02:42:04.708Z,5.4604
2023-04-26T02:43:05.385Z,5.4197
2023-04-26T02:44:06.091Z,5.4286
2023-04-26T02:45:06.854Z,5.4641
2023-04-26T02:46:07.563Z,5.4033
2023-04-26T02:47:08.321Z,5.4387
2023-04-26T02:48:09.083Z,5.3913
2023-04-26T02:49:09.750Z,5.4883
2023-04-26T02:50:10.420Z,5.5887
2023-04-26T02:51:11.104Z,5.6487
2023-04-26T02:52:11.814Z,5.7167
2023-04-26T02:53:12.514Z,5.6964
2023-04-26T02:54:13.252Z,5.6410
2023-04-26T02:55:13.928Z,5.6837
2023-04-26T02:56:14.620Z,5.6776
2023-04-26T02:57:15.287Z,5.6917
2023-04-26T02:58:16.000Z,5.6942
2023-04-26T02:59:16.673Z,5.6178
2023-04-26T03:00:17.399Z,5.5695
2023-04-26T03:01:18.159Z,5.6071
2023-04-26T03:02:18.970Z,5.5828
2023-04-26T03:03:19.910Z,5.5939
2023-04-26T03:04:21.030Z,5.5168
2023-04-26T03:05:21.705Z,5.5423
2023-04-26T03:06:22.428Z,5.5987
2023-04-26T03:07:23.138Z,5.5770
2023-04-26T03:08:23.988Z,5.5963
2023-04-26T03:09:24.606Z,5.6076
2023-04-26T03:10:25.285Z,5.6164
2023-04-26T03:11:26.011Z,5.5990
2023-04-26T03:12:26.123Z,5.6022
2023-04-26T03:13:26.852Z,5.6512
2023-04-26T03:14:27.528Z,5.6543
2023-04-26T03:15:28.216Z,5.6581
2023-04-26T03:16:28.969Z,5.6700
2023-04-26T03:17:29.625Z,5.6479
2023-04-26T03:18:30.363Z,5.6631
2023-04-26T03:19:31.020Z,5.7146
2023-04-26T03:20:31.685Z,5.7081
2023-04-26T03:21:32.357Z,5.6913
2023-04-26T03:22:33.036Z,5.6777
2023-04-26T03:23:33.760Z,5.6186
2023-04-26T03:24:34.448Z,5.5920
2023-04-26T03:25:35.154Z,5.6731
2023-04-26T03:26:35.838Z,5.6651
2023-04-26T03:27:36.506Z,5.6783
2023-04-26T03:28:37.203Z,5.7196
2023-04-26T03:29:37.920Z,5.7137
2023-04-26T03:30:38.621Z,5.7218
2023-04-26T03:31:39.461Z,5.7115
2023-04-26T03:32:40.185Z,5.7059
2023-04-26T03:33:40.787Z,5.7137
2023-04-26T03:34:41.490Z,5.6875
2023-04-26T03:35:42.192Z,5.6942
2023-04-26T03:36:42.927Z,5.6799
2023-04-26T03:37:43.575Z,5.7003
2023-04-26T03:38:44.247Z,5.6947
2023-04-26T03:39:44.952Z,5.7498
2023-04-26T03:40:45.684Z,5.6889
2023-04-26T03:41:46.367Z,5.6575
2023-04-26T03:42:47.122Z,5.6536
2023-04-26T03:43:47.767Z,5.6293
2023-04-26T03:44:48.466Z,5.6504
2023-04-26T03:45:49.148Z,5.6493
2023-04-26T03:46:49.902Z,5.6462
2023-04-26T03:47:50.693Z,5.6275
2023-04-26T03:48:51.703Z,5.6213
2023-04-26T03:49:52.808Z,5.6127
2023-04-26T03:50:53.505Z,5.6122
2023-04-26T03:51:54.181Z,5.6262
2023-04-26T03:52:54.882Z,5.5547
2023-04-26T03:53:55.593Z,5.5885
2023-04-26T03:54:56.264Z,5.5612
2023-04-26T03:55:56.936Z,5.5282
2023-04-26T03:56:57.619Z,5.5133
2023-04-26T03:57:58.534Z,5.4577
2023-04-26T03:58:59.173Z,5.4653
2023-04-26T03:59:59.934Z,5.4539
2023-04-26T04:01:00.571Z,5.4077
2023-04-26T04:02:01.267Z,5.3771
2023-04-26T04:03:02.016Z,5.3669
2023-04-26T04:04:02.935Z,5.3526
2023-04-26T04:05:03.853Z,5.3177
2023-04-26T04:06:04.620Z,5.3196
2023-04-26T04:07:05.308Z,5.3307
2023-04-26T04:08:06.017Z,5.3240
2023-04-26T04:09:06.728Z,5.3548
2023-04-26T04:10:07.401Z,5.3777
2023-04-26T04:11:08.137Z,5.3910
2023-04-26T04:12:08.834Z,5.3210
2023-04-26T04:13:09.547Z,5.3385
2023-04-26T04:14:10.302Z,5.3125
2023-04-26T04:15:10.998Z,5.3390
2023-04-26T04:16:11.756Z,5.3256
2023-04-26T04:17:12.428Z,5.3322
2023-04-26T04:18:13.177Z,5.3033
2023-04-26T04:19:13.888Z,5.2454
2023-04-26T04:20:14.622Z,5.2879
2023-04-26T04:21:15.347Z,5.3289
2023-04-26T04:22:16.071Z,5.3302
2023-04-26T04:23:16.787Z,5.2750
2023-04-26T04:24:17.429Z,5.2055
2023-04-26T04:25:18.108Z,5.2271
2023-04-26T04:26:18.754Z,5.2450
2023-04-26T04:27:19.523Z,5.2681
2023-04-26T04:28:20.174Z,5.3125
2023-04-26T04:29:20.875Z,5.3373
2023-04-26T04:30:21.584Z,5.3726
2023-04-26T04:31:22.363Z,5.4015
2023-04-26T04:32:23.181Z,5.4180
2023-04-26T04:33:23.878Z,5.4235
2023-04-26T04:34:24.575Z,5.4555
2023-04-26T04:35:25.251Z,5.3910
2023-04-26T04:36:25.924Z,5.4374
2023-04-26T04:37:26.615Z,5.4379
2023-04-26T04:38:27.315Z,5.4368
2023-04-26T04:39:27.953Z,5.4672
2023-04-26T04:40:28.663Z,5.4582
2023-04-26T04:41:29.404Z,5.4459
2023-04-26T04:42:30.087Z,5.4712
2023-04-26T04:43:31.087Z,5.5061
2023-04-26T04:44:31.885Z,5.4901
2023-04-26T04:45:32.574Z,5.5312
2023-04-26T04:46:33.312Z,5.5913
2023-04-26T04:47:34.247Z,5.6202
2023-04-26T04:48:34.995Z,5.5468
2023-04-26T04:49:35.710Z,5.5552
2023-04-26T04:50:36.394Z,5.5990
2023-04-26T04:51:37.122Z,5.6197
2023-04-26T04:52:37.923Z,5.5845
2023-04-26T04:53:38.638Z,5.6029
2023-04-26T04:54:39.250Z,5.6115
2023-04-26T04:55:39.980Z,5.6569
2023-04-26T04:56:40.622Z,5.6538
2023-04-26T04:57:43.117Z,5.5588
2023-04-26T04:58:43.948Z,5.5740
2023-04-26T04:59:44.737Z,5.5984
2023-04-26T05:00:45.412Z,5.6455
2023-04-26T05:01:46.134Z,5.5888
2023-04-26T05:02:46.951Z,5.5680
2023-04-26T05:03:47.776Z,5.5474
2023-04-26T05:04:48.541Z,5.5815
2023-04-26T05:05:49.294Z,5.5482
2023-04-26T05:06:50.039Z,5.5624
2023-04-26T05:07:50.900Z,5.5618
2023-04-26T05:08:51.628Z,5.5592
2023-04-26T05:09:52.325Z,5.5457
2023-04-26T05:10:52.958Z,5.5765
2023-04-26T05:11:53.620Z,5.5916
2023-04-26T05:12:54.340Z,5.6915
2023-04-26T05:13:55.592Z,5.7214
2023-04-26T05:14:56.699Z,5.6796
2023-04-26T05:15:57.503Z,5.6228
2023-04-26T05:16:58.205Z,5.6411
2023-04-26T05:17:58.966Z,5.6530
2023-04-26T05:18:59.670Z,5.6930
2023-04-26T05:20:00.494Z,5.6816
2023-04-26T05:21:01.201Z,5.6440
2023-04-26T05:22:01.907Z,5.6144
2023-04-26T05:23:02.626Z,5.5877
2023-04-26T05:24:03.363Z,5.6373
2023-04-26T05:25:04.064Z,5.5848
2023-04-26T05:26:04.747Z,5.6031
2023-04-26T05:27:05.443Z,5.5765
2023-04-26T05:28:06.144Z,5.6246
2023-04-26T05:29:06.811Z,5.6442
2023-04-26T05:30:07.454Z,5.6391
2023-04-26T05:31:10.632Z,5.6160
2023-04-26T05:32:09.354Z,5.6385
2023-04-26T05:33:10.073Z,5.6203
2023-04-26T05:34:10.743Z,5.6315
2023-04-26T05:35:11.397Z,5.6677
2023-04-26T05:36:12.083Z,5.7109
2023-04-26T05:37:12.742Z,5.7237
2023-04-26T05:38:13.485Z,5.7971
2023-04-26T05:39:14.157Z,5.8051
2023-04-26T05:40:14.837Z,5.7957
2023-04-26T05:41:15.570Z,5.8466
2023-04-26T05:42:17.855Z,5.8402
2023-04-26T05:43:19.136Z,5.7759
2023-04-26T05:44:19.928Z,5.7951
2023-04-26T05:45:20.626Z,5.8128
2023-04-26T05:46:21.607Z,5.8376
2023-04-26T05:47:22.613Z,5.7819
2023-04-26T05:48:23.331Z,5.7789
2023-04-26T05:49:24.017Z,5.8229
2023-04-26T05:50:24.749Z,5.8937
2023-04-26T05:51:25.456Z,5.9233
2023-04-26T05:52:26.179Z,6.0489
2023-04-26T05:53:26.923Z,6.0242
2023-04-26T05:54:27.628Z,5.8630
2023-04-26T05:55:28.367Z,5.9624
2023-04-26T05:56:29.121Z,6.0109
2023-04-26T05:57:29.943Z,5.8535
2023-04-26T05:58:30.662Z,5.8729
2023-04-26T05:59:31.376Z,6.0066
2023-04-26T06:00:32.108Z,5.9812
2023-04-26T06:01:32.873Z,6.0114
2023-04-26T06:02:33.876Z,6.0710
2023-04-26T06:03:35.151Z,6.0305
2023-04-26T06:04:36.191Z,6.0233
2023-04-26T06:05:36.944Z,5.8531
2023-04-26T06:06:37.785Z,5.8394
2023-04-26T06:07:38.499Z,5.8331
2023-04-26T06:08:39.229Z,5.8802
2023-04-26T06:09:39.935Z,5.9580
2023-04-26T06:10:40.673Z,5.9851
2023-04-26T06:11:41.321Z,6.1141
2023-04-26T06:12:42.056Z,6.1402
2023-04-26T06:13:43.126Z,6.1381
2023-04-26T06:14:43.946Z,6.0943
2023-04-26T06:15:44.605Z,6.0679
2023-04-26T06:16:45.428Z,6.1392
2023-04-26T06:17:46.132Z,5.9206
2023-04-26T06:18:46.902Z,5.9161
2023-04-26T06:19:47.698Z,5.9473
2023-04-26T06:20:48.440Z,6.1363
2023-04-26T06:21:49.169Z,6.1341
2023-04-26T06:22:49.939Z,6.1606
2023-04-26T06:23:50.942Z,6.1994
2023-04-26T06:24:52.004Z,6.0180
2023-04-26T06:25:52.669Z,5.8727
2023-04-26T06:26:53.414Z,5.8564
2023-04-26T06:27:54.163Z,5.6973
2023-04-26T06:28:54.890Z,5.7494
2023-04-26T06:29:55.605Z,5.8357
2023-04-26T06:30:56.450Z,6.0426
2023-04-26T06:31:57.173Z,6.0971
2023-04-26T06:32:58.032Z,6.2246
2023-04-26T06:33:58.779Z,6.1752
2023-04-26T06:34:59.509Z,6.1379
2023-04-26T06:36:00.223Z,6.0399
2023-04-26T06:37:00.994Z,5.9782
2023-04-26T06:38:01.689Z,6.0896
2023-04-26T06:39:02.419Z,6.1083
2023-04-26T06:40:03.124Z,6.0659
2023-04-26T06:41:03.863Z,6.1664
2023-04-26T06:42:04.633Z,6.4148
2023-04-26T06:43:05.370Z,6.0533
2023-04-26T06:44:06.126Z,6.0990
2023-04-26T06:45:06.881Z,6.1935
2023-04-26T06:46:07.602Z,6.1069
2023-04-26T06:47:08.311Z,6.1186
2023-04-26T06:48:09.098Z,6.1294
2023-04-26T06:49:09.870Z,6.2468
2023-04-26T06:50:10.614Z,6.3639
2023-04-26T06:51:11.390Z,6.2379
2023-04-26T06:52:12.215Z,6.0878
2023-04-26T06:53:12.922Z,6.0313
2023-04-26T06:54:13.708Z,6.1543
2023-04-26T06:55:14.442Z,6.4163
2023-04-26T06:56:15.133Z,6.4449
2023-04-26T06:57:15.874Z,6.6493
2023-04-26T06:58:16.824Z,6.6467
2023-04-26T06:59:17.572Z,6.6948
2023-04-26T07:00:18.317Z,6.6741
2023-04-26T07:01:19.069Z,6.2968
2023-04-26T07:02:20.068Z,6.5075
2023-04-26T07:03:21.033Z,6.7282
2023-04-26T07:04:22.047Z,6.6092
2023-04-26T07:05:22.911Z,6.6554
2023-04-26T07:06:23.677Z,6.6987
2023-04-26T07:07:24.355Z,6.8585
2023-04-26T07:08:25.100Z,6.8987
2023-04-26T07:09:25.804Z,6.9565
2023-04-26T07:10:26.535Z,7.0115
2023-04-26T07:11:27.270Z,6.9293
2023-04-26T07:12:27.960Z,6.9810
2023-04-26T07:13:28.658Z,6.7700
2023-04-26T07:14:29.343Z,6.8290
2023-04-26T07:15:30.041Z,6.8716
2023-04-26T07:16:30.803Z,6.5741
2023-04-26T07:17:31.600Z,6.5807
2023-04-26T07:18:32.323Z,6.7847
2023-04-26T07:19:33.093Z,6.7246
2023-04-26T07:20:33.871Z,6.5739
2023-04-26T07:21:34.570Z,6.6285
2023-04-26T07:22:35.296Z,6.6930
2023-04-26T07:23:36.090Z,6.5966
2023-04-26T07:24:36.774Z,6.7701
2023-04-26T07:25:37.488Z,6.8815
2023-04-26T07:26:38.208Z,6.8414
2023-04-26T07:27:38.967Z,7.0060
2023-04-26T07:28:39.688Z,6.9792
2023-04-26T07:29:40.435Z,7.0238
2023-04-26T07:30:41.145Z,7.2974
2023-04-26T07:31:41.817Z,7.4296
2023-04-26T07:32:42.659Z,7.2788
2023-04-26T07:33:43.505Z,7.3800
2023-04-26T07:34:44.251Z,7.5127
2023-04-26T07:35:44.988Z,7.4366
2023-04-26T07:36:45.705Z,7.1459
2023-04-26T07:37:46.412Z,7.1771
2023-04-26T07:38:47.179Z,7.2421
2023-04-26T07:39:47.837Z,7.2328
2023-04-26T07:40:48.567Z,7.3718
2023-04-26T07:41:49.238Z,7.4414
2023-04-26T07:42:49.975Z,7.4984
2023-04-26T07:43:50.882Z,7.6330
2023-04-26T07:44:51.973Z,7.6183
2023-04-26T07:45:52.727Z,7.7591
2023-04-26T07:46:53.416Z,7.4904
2023-04-26T07:47:54.781Z,7.2733
2023-04-26T07:48:55.884Z,7.0956
2023-04-26T07:49:56.603Z,7.2512
2023-04-26T07:50:57.327Z,7.2143
2023-04-26T07:51:58.023Z,7.2955
2023-04-26T07:52:58.769Z,7.4078
2023-04-26T07:53:59.440Z,7.3207
2023-04-26T07:55:00.161Z,7.3486
2023-04-26T07:56:00.882Z,7.5363
2023-04-26T07:57:01.636Z,7.4572
2023-04-26T07:58:02.314Z,7.4059
2023-04-26T07:59:03.053Z,7.5182
2023-04-26T08:00:03.744Z,7.7578
2023-04-26T08:01:04.443Z,7.7726
2023-04-26T08:02:05.199Z,7.8655
2023-04-26T08:03:06.108Z,7.7731
2023-04-26T08:04:07.435Z,7.6249
2023-04-26T08:05:08.445Z,7.8121
2023-04-26T08:06:09.233Z,7.5028
2023-04-26T08:07:09.968Z,7.3013
2023-04-26T08:08:10.616Z,7.5591
2023-04-26T08:09:12.499Z,7.7547
2023-04-26T08:10:13.331Z,7.7124
2023-04-26T08:11:14.082Z,7.5812
2023-04-26T08:12:14.830Z,7.6171
2023-04-26T08:13:15.509Z,7.5368
2023-04-26T08:14:16.399Z,7.5085
2023-04-26T08:15:17.103Z,7.7249
2023-04-26T08:16:17.830Z,7.9480
2023-04-26T08:17:18.568Z,8.1573
2023-04-26T08:18:19.292Z,8.0991
2023-04-26T08:19:20.069Z,7.9970
2023-04-26T08:20:20.769Z,7.9205
2023-04-26T08:21:21.510Z,8.0295
2023-04-26T08:22:22.254Z,8.2700
2023-04-26T08:23:22.983Z,8.2769
2023-04-26T08:24:23.884Z,8.1647
2023-04-26T08:25:24.768Z,8.1244
2023-04-26T08:26:25.494Z,8.0353
2023-04-26T08:27:26.236Z,8.2296
2023-04-26T08:28:26.925Z,8.3720
2023-04-26T08:29:27.684Z,8.1967
2023-04-26T08:30:28.411Z,8.2593
2023-04-26T08:31:29.256Z,8.4137
2023-04-26T08:32:30.066Z,8.3755
2023-04-26T08:33:30.762Z,8.4833
2023-04-26T08:34:31.505Z,8.3950
2023-04-26T08:35:32.271Z,8.3195
2023-04-26T08:36:32.962Z,8.3908
2023-04-26T08:37:33.660Z,8.3403
2023-04-26T08:38:34.426Z,8.4355
2023-04-26T08:39:35.160Z,8.4421
2023-04-26T08:40:35.885Z,8.3293
2023-04-26T08:41:36.595Z,8.2648
2023-04-26T08:42:38.002Z,8.0673
2023-04-26T08:43:38.976Z,8.3307
2023-04-26T08:44:39.674Z,8.5400
2023-04-26T08:45:40.495Z,8.4458
2023-04-26T08:46:41.226Z,8.4446
2023-04-26T08:47:42.022Z,8.6554
2023-04-26T08:48:42.727Z,8.4743
2023-04-26T08:49:43.443Z,8.2776
2023-04-26T08:50:44.109Z,8.2127
2023-04-26T08:51:44.855Z,8.4126
2023-04-26T08:52:45.632Z,8.5645
2023-04-26T08:53:46.298Z,8.8524
2023-04-26T08:54:47.036Z,8.6999
2023-04-26T08:55:47.724Z,8.7372
2023-04-26T08:56:48.415Z,8.6126
2023-04-26T08:57:49.105Z,8.5947
2023-04-26T08:58:49.790Z,8.5521
2023-04-26T08:59:50.524Z,8.5133
2023-04-26T09:00:51.383Z,8.6127
2023-04-26T09:01:52.119Z,8.3137
2023-04-26T09:02:53.197Z,8.4014
2023-04-26T09:03:54.585Z,8.4946
2023-04-26T09:04:55.973Z,8.6991
2023-04-26T09:05:56.930Z,8.7544
2023-04-26T09:06:57.652Z,8.8596
2023-04-26T09:07:58.344Z,8.9950
2023-04-26T09:08:59.036Z,9.2827
2023-04-26T09:09:59.840Z,9.2443
2023-04-26T09:11:00.531Z,9.4123
2023-04-26T09:12:01.230Z,9.0465
2023-04-26T09:13:01.957Z,8.8883
2023-04-26T09:14:02.662Z,9.2097
2023-04-26T09:15:03.372Z,9.4220
2023-04-26T09:16:05.267Z,9.5689
2023-04-26T09:17:06.323Z,9.6970
2023-04-26T09:18:07.043Z,9.6655
2023-04-26T09:19:07.769Z,9.7661
2023-04-26T09:20:08.608Z,9.6289
2023-04-26T09:21:09.305Z,9.7122
2023-04-26T09:22:10.026Z,9.4919
2023-04-26T09:23:10.736Z,9.4925
2023-04-26T09:24:11.404Z,9.2097
2023-04-26T09:25:12.103Z,9.2412
2023-04-26T09:26:12.791Z,9.6222
2023-04-26T09:27:13.509Z,9.7386
2023-04-26T09:28:14.182Z,9.8829
2023-04-26T09:29:14.970Z,9.8579
2023-04-26T09:30:15.665Z,9.9141
2023-04-26T09:31:16.399Z,10.0445
2023-04-26T09:32:17.079Z,10.3307
2023-04-26T09:33:17.897Z,10.4165
2023-04-26T09:34:18.568Z,10.5085
2023-04-26T09:35:19.278Z,10.4706
2023-04-26T09:36:19.946Z,10.6273
2023-04-26T09:37:20.627Z,10.6647
2023-04-26T09:38:21.364Z,9.8069
2023-04-26T09:39:22.031Z,10.0583
2023-04-26T09:40:22.788Z,10.2583
2023-04-26T09:41:23.518Z,10.2333
2023-04-26T09:42:24.192Z,10.2026
2023-04-26T09:43:24.826Z,10.1278
2023-04-26T09:44:25.469Z,10.1931
2023-04-26T09:45:26.119Z,10.0960
2023-04-26T09:46:26.843Z,10.1058
2023-04-26T09:47:27.474Z,10.5915
2023-04-26T09:48:28.113Z,10.2987
2023-04-26T09:49:28.766Z,10.1995
2023-04-26T09:50:29.459Z,10.2445
2023-04-26T09:51:30.145Z,10.2628
2023-04-26T09:52:30.792Z,10.3008
2023-04-26T09:53:31.434Z,10.3208
2023-04-26T09:54:32.046Z,10.3153
2023-04-26T09:55:35.468Z,10.4785
2023-04-26T09:56:33.819Z,10.2825
2023-04-26T09:57:34.472Z,10.7889
2023-04-26T09:58:35.093Z,10.4985
2023-04-26T09:59:35.725Z,10.6215
2023-04-26T10:00:36.386Z,10.8723
2023-04-26T10:01:37.088Z,10.6772
2023-04-26T10:02:37.808Z,10.3225
2023-04-26T10:03:38.798Z,10.2469
2023-04-26T10:04:39.788Z,9.9693
2023-04-26T10:05:40.455Z,10.0800
2023-04-26T10:06:41.147Z,10.4406
2023-04-26T10:07:41.875Z,10.8048
2023-04-26T10:08:42.570Z,10.9297
2023-04-26T10:09:43.208Z,10.7832
2023-04-26T10:10:43.929Z,10.7574
2023-04-26T10:11:44.576Z,10.2838
2023-04-26T10:12:45.264Z,10.4409
2023-04-26T10:13:45.991Z,10.5708
2023-04-26T10:14:46.694Z,10.4493
2023-04-26T10:15:47.406Z,10.8657
2023-04-26T10:16:48.112Z,10.6869
2023-04-26T10:17:50.239Z,10.6165
2023-04-26T10:18:50.185Z,11.0538
2023-04-26T10:19:50.939Z,10.5647
2023-04-26T10:20:51.609Z,10.7864
2023-04-26T10:21:52.289Z,10.8195
2023-04-26T10:22:52.963Z,11.0740
2023-04-26T10:23:53.700Z,10.8390
2023-04-26T10:24:54.391Z,10.9825
2023-04-26T10:25:55.082Z,11.1416
2023-04-26T10:26:55.810Z,11.4997
2023-04-26T10:27:56.525Z,11.7493
2023-04-26T10:29:02.098Z,11.7038
2023-04-26T10:29:58.330Z,11.4791
2023-04-26T10:30:58.996Z,10.9507
2023-04-26T10:31:59.653Z,10.8378
2023-04-26T10:33:00.331Z,11.4739
2023-04-26T10:34:00.948Z,11.6609
2023-04-26T10:35:01.621Z,12.1982
2023-04-26T10:36:02.260Z,12.3681
2023-04-26T10:37:02.995Z,12.4990
2023-04-26T10:38:03.638Z,12.5932
2023-04-26T10:39:04.261Z,12.8776
2023-04-26T10:40:04.863Z,12.8778
2023-04-26T10:41:05.545Z,12.1113
2023-04-26T10:42:06.171Z,12.3795
2023-04-26T10:43:06.806Z,11.6202
2023-04-26T10:44:07.421Z,11.7587
2023-04-26T10:45:08.054Z,12.2770
2023-04-26T10:46:08.695Z,12.7517
2023-04-26T10:47:09.284Z,12.2849
2023-04-26T10:48:09.964Z,11.8889
2023-04-26T10:49:10.589Z,11.9787
2023-04-26T10:50:11.215Z,11.6124
2023-04-26T10:51:11.958Z,11.8954
2023-04-26T10:52:12.554Z,11.8989
2023-04-26T10:53:13.198Z,12.0777
2023-04-26T10:54:13.836Z,12.0422
2023-04-26T10:55:14.469Z,11.9420
2023-04-26T10:56:15.083Z,12.0045
2023-04-26T10:57:15.716Z,11.9928
2023-04-26T10:58:16.323Z,12.4294
2023-04-26T10:59:36.125Z,13.0366
2023-04-26T11:00:18.001Z,12.8201
2023-04-26T11:01:18.751Z,13.2185
2023-04-26T11:02:19.408Z,12.4408
2023-04-26T11:03:20.104Z,12.4367
2023-04-26T11:04:20.897Z,12.8278
2023-04-26T11:05:23.557Z,13.1447
2023-04-26T11:06:22.670Z,13.2803
2023-04-26T11:07:23.291Z,13.0881
2023-04-26T11:08:23.934Z,13.0880
2023-04-26T11:09:24.552Z,13.1721
2023-04-26T11:10:25.219Z,12.9401
2023-04-26T11:11:25.905Z,12.0683
2023-04-26T11:12:26.586Z,12.0566
2023-04-26T11:13:27.211Z,12.0805
2023-04-26T11:14:27.872Z,12.3185
2023-04-26T11:15:28.506Z,12.2629
2023-04-26T11:16:29.302Z,12.2709
2023-04-26T11:17:30.002Z,12.4226
2023-04-26T11:18:30.629Z,13.4052
2023-04-26T11:19:31.256Z,13.6526
2023-04-26T11:20:31.830Z,13.9047
2023-04-26T11:21:32.444Z,14.0083
2023-04-26T11:22:33.023Z,14.0668
2023-04-26T11:23:33.849Z,14.6036
2023-04-26T11:24:34.448Z,14.0260
2023-04-26T11:25:35.041Z,14.0644
2023-04-26T11:26:35.652Z,13.9810
2023-04-26T11:27:36.163Z,14.2868
2023-04-26T11:28:36.737Z,13.8139
2023-04-26T11:29:37.331Z,13.5031
2023-04-26T11:30:38.506Z,14.1057
2023-04-26T11:31:39.460Z,14.1155
2023-04-26T11:32:40.120Z,13.2390
2023-04-26T11:33:40.699Z,13.2969
2023-04-26T11:34:41.297Z,13.4075
2023-04-26T11:35:41.869Z,14.4124
2023-04-26T11:36:42.473Z,15.0131
2023-04-26T11:37:43.051Z,14.7396
2023-04-26T11:38:43.694Z,15.1476
2023-04-26T11:39:44.318Z,15.7418
2023-04-26T11:40:44.867Z,15.4891
2023-04-26T11:41:45.436Z,14.0390
2023-04-26T11:42:46.029Z,14.2353
2023-04-26T11:43:46.634Z,14.4960
2023-04-26T11:44:47.879Z,13.4014
2023-04-26T11:45:48.608Z,13.5500
2023-04-26T11:46:49.291Z,13.0695
2023-04-26T11:47:49.899Z,13.6509
2023-04-26T11:48:50.425Z,14.0855
2023-04-26T11:49:51.070Z,13.5755
2023-04-26T11:50:51.614Z,13.8419
2023-04-26T11:51:52.218Z,13.7441
2023-04-26T11:52:52.773Z,14.0206
2023-04-26T11:53:53.318Z,13.9879
2023-04-26T11:54:53.869Z,14.1912
2023-04-26T11:55:54.459Z,14.5060
2023-04-26T11:56:55.050Z,14.1723
2023-04-26T11:57:55.865Z,14.0883
2023-04-26T11:58:56.834Z,14.1288
2023-04-26T11:59:57.639Z,14.2294
2023-04-26T12:00:58.213Z,14.0402
2023-04-26T12:01:58.936Z,13.7921
2023-04-26T12:02:59.715Z,13.7965
2023-04-26T12:04:00.792Z,13.9320
2023-04-26T12:05:01.822Z,14.1520
2023-04-26T12:06:02.545Z,14.1256
2023-04-26T12:07:03.113Z,14.3318
2023-04-26T12:08:03.681Z,13.8939
2023-04-26T12:09:04.258Z,12.9316
2023-04-26T12:10:04.880Z,12.7120
2023-04-26T12:11:05.497Z,12.9126
2023-04-26T12:12:06.092Z,13.4012
2023-04-26T12:13:06.695Z,13.5677
2023-04-26T12:14:07.377Z,13.3105
2023-04-26T12:15:08.140Z,13.2015
2023-04-26T12:16:22.277Z,13.4272
2023-04-26T12:17:09.967Z,13.3913
2023-04-26T12:18:11.072Z,13.6706
2023-04-26T12:19:12.243Z,13.6484
2023-04-26T12:20:12.917Z,13.4144
2023-04-26T12:21:13.525Z,13.4661
2023-04-26T12:22:14.149Z,13.8136
2023-04-26T12:23:14.756Z,13.8718
2023-04-26T12:24:15.350Z,13.8641
2023-04-26T12:25:15.971Z,13.7947
2023-04-26T12:26:16.601Z,13.0780
2023-04-26T12:27:17.170Z,13.5505
2023-04-26T12:28:17.882Z,13.5716
2023-04-26T12:29:18.548Z,13.7988
2023-04-26T12:30:19.200Z,14.0254
2023-04-26T12:31:19.857Z,14.2943